Time;durP1;ratioP1;P1;durP2;ratioP2;P2;SDS_P1;SDS_P2;PMS_P1;PMS_P2;Temp;Humidity;BMP_temperature;BMP_pressure;BME280_temperature;BME280_humidity;BME280_pressure;Samples;Min_cycle;Max_cycle;Signal;HPM_P1;HPM_P2
2021/11/24 00:01:04;;;;;;;178.33;42.57;;;6.70;99.90;;;;;;5138502;27;20218;-68
2021/11/24 00:03:33;;;;;;;188.40;44.60;;;6.70;99.90;;;;;;5144441;27;20945;-69
2021/11/24 00:06:02;;;;;;;197.83;45.37;;;6.70;99.90;;;;;;5146591;27;20304;-69
2021/11/24 00:08:33;;;;;;;159.60;42.93;;;6.80;99.90;;;;;;5143650;27;20196;-69
2021/11/24 00:11:01;;;;;;;199.23;46.87;;;6.70;99.90;;;;;;5150966;27;20212;-69
2021/11/24 00:13:30;;;;;;;196.00;45.57;;;6.70;99.90;;;;;;5151672;27;20221;-68
2021/11/24 00:15:58;;;;;;;199.17;43.47;;;6.80;99.90;;;;;;5145262;27;20196;-69
2021/11/24 00:18:28;;;;;;;211.57;45.30;;;6.70;99.90;;;;;;5143264;27;20285;-69
2021/11/24 00:20:57;;;;;;;178.57;43.43;;;6.80;99.90;;;;;;5137597;27;20194;-69
2021/11/24 00:23:28;;;;;;;170.37;41.50;;;6.80;99.90;;;;;;5128696;27;20567;-68
2021/11/24 00:25:57;;;;;;;179.90;43.77;;;6.80;99.90;;;;;;5122252;27;20260;-69
2021/11/24 00:28:26;;;;;;;218.13;46.33;;;6.70;99.90;;;;;;5135801;27;20600;-69
2021/11/24 00:30:54;;;;;;;202.03;46.17;;;6.70;99.90;;;;;;5136826;27;20226;-69
2021/11/24 00:33:23;;;;;;;198.80;47.00;;;6.70;99.90;;;;;;5144260;27;20692;-69
2021/11/24 00:35:53;;;;;;;204.37;45.30;;;6.80;99.90;;;;;;5152351;27;20647;-69
2021/11/24 00:38:22;;;;;;;192.03;45.70;;;6.70;99.90;;;;;;5128235;27;20587;-69
2021/11/24 00:40:51;;;;;;;202.73;46.47;;;6.70;99.90;;;;;;5151259;27;20886;-69
2021/11/24 00:43:21;;;;;;;187.50;43.67;;;6.80;99.90;;;;;;5146086;27;20702;-69
2021/11/24 00:45:55;;;;;;;208.53;45.57;;;6.80;99.90;;;;;;5155776;27;20213;-69
2021/11/24 00:48:24;;;;;;;179.17;44.60;;;6.80;99.90;;;;;;5155558;27;20928;-69
2021/11/24 00:50:53;;;;;;;232.13;46.53;;;6.70;99.90;;;;;;5147671;27;20731;-69
2021/11/24 00:53:22;;;;;;;229.07;46.93;;;6.70;99.90;;;;;;5147748;27;20232;-69
2021/11/24 00:55:51;;;;;;;228.23;47.60;;;6.70;99.90;;;;;;5145758;27;20762;-69
2021/11/24 00:58:19;;;;;;;209.27;45.87;;;6.70;99.90;;;;;;5145401;27;20743;-69
2021/11/24 01:00:48;;;;;;;211.03;44.47;;;6.80;99.90;;;;;;5148068;27;20720;-68
2021/11/24 01:03:17;;;;;;;236.97;46.60;;;6.80;99.90;;;;;;5149005;27;20225;-69
2021/11/24 01:05:47;;;;;;;181.10;45.03;;;6.70;99.90;;;;;;5150302;27;20201;-69
2021/11/24 01:08:17;;;;;;;219.77;45.57;;;6.70;99.90;;;;;;5139521;27;20201;-69
2021/11/24 01:10:47;;;;;;;194.37;43.30;;;6.70;99.90;;;;;;5125549;27;20202;-69
2021/11/24 01:13:17;;;;;;;206.77;46.73;;;6.70;99.90;;;;;;5132364;27;20220;-69
2021/11/24 01:15:46;;;;;;;198.43;45.00;;;6.70;99.90;;;;;;5125480;27;20269;-69
2021/11/24 01:18:15;;;;;;;224.90;48.40;;;6.80;99.90;;;;;;5148928;27;20198;-68
2021/11/24 01:20:46;;;;;;;223.67;47.07;;;6.70;99.90;;;;;;5146724;27;20221;-69
2021/11/24 01:23:15;;;;;;;204.67;44.60;;;6.70;99.90;;;;;;5128500;27;20242;-69
2021/11/24 01:25:44;;;;;;;166.67;40.77;;;6.70;99.90;;;;;;5134750;27;20205;-69
2021/11/24 01:28:13;;;;;;;208.53;45.90;;;6.70;99.90;;;;;;5126243;27;20613;-69
2021/11/24 01:30:42;;;;;;;222.80;45.60;;;6.70;99.90;;;;;;5147451;27;20773;-69
2021/11/24 01:33:10;;;;;;;229.60;48.83;;;6.70;99.90;;;;;;5144513;27;20659;-69
2021/11/24 01:35:39;;;;;;;183.57;43.97;;;6.70;99.90;;;;;;5151535;27;20831;-69
2021/11/24 01:38:07;;;;;;;279.00;51.70;;;6.70;99.90;;;;;;5147233;27;20232;-69
2021/11/24 01:40:38;;;;;;;240.57;51.10;;;6.70;99.90;;;;;;5147404;27;20210;-69
2021/11/24 01:43:08;;;;;;;258.87;52.37;;;6.70;99.90;;;;;;5142206;27;20695;-69
2021/11/24 01:45:37;;;;;;;219.93;46.27;;;6.70;99.90;;;;;;5144446;27;20234;-69
2021/11/24 01:48:07;;;;;;;199.43;45.57;;;6.70;99.90;;;;;;5140268;27;20253;-69
2021/11/24 01:50:36;;;;;;;208.30;43.53;;;6.70;99.90;;;;;;5141259;27;20201;-69
2021/11/24 01:53:05;;;;;;;194.17;44.80;;;6.70;99.90;;;;;;5123196;27;20593;-69
2021/11/24 01:55:33;;;;;;;232.10;49.90;;;6.70;99.90;;;;;;5123656;27;20213;-69
2021/11/24 01:58:04;;;;;;;200.50;44.90;;;6.70;99.90;;;;;;5126451;27;20683;-69
2021/11/24 02:00:35;;;;;;;214.50;48.97;;;6.70;99.90;;;;;;5132380;27;20193;-67
2021/11/24 02:03:06;;;;;;;202.67;45.37;;;6.70;99.90;;;;;;5143200;27;20189;-69
2021/11/24 02:05:35;;;;;;;202.23;45.40;;;6.70;99.90;;;;;;5152244;27;20234;-69
2021/11/24 02:08:04;;;;;;;206.97;45.73;;;6.70;99.90;;;;;;5136649;27;20284;-69
2021/11/24 02:10:32;;;;;;;186.07;42.10;;;6.70;99.90;;;;;;5148731;27;20702;-69
2021/11/24 02:13:02;;;;;;;223.93;48.60;;;6.70;99.90;;;;;;5143405;27;20217;-68
2021/11/24 02:15:31;;;;;;;171.47;42.60;;;6.70;99.90;;;;;;5147070;27;20201;-69
2021/11/24 02:18:03;;;;;;;212.90;49.53;;;6.70;99.90;;;;;;5146725;27;20198;-69
2021/11/24 02:20:41;;;;;;;222.10;47.77;;;6.70;99.90;;;;;;5124091;27;20193;-69
2021/11/24 02:23:11;;;;;;;205.40;47.93;;;6.60;99.90;;;;;;5141351;27;20245;-69
2021/11/24 02:25:42;;;;;;;226.43;48.77;;;6.70;99.90;;;;;;5140693;27;20189;-69
2021/11/24 02:28:10;;;;;;;233.77;50.20;;;6.70;99.90;;;;;;5149577;27;20262;-69
2021/11/24 02:30:39;;;;;;;185.33;46.87;;;6.70;99.90;;;;;;5129913;27;20248;-69
2021/11/24 02:33:08;;;;;;;239.90;49.27;;;6.70;99.90;;;;;;5146295;27;20205;-68
2021/11/24 02:35:39;;;;;;;208.03;48.03;;;6.70;99.90;;;;;;5146450;27;20201;-69
2021/11/24 02:38:09;;;;;;;231.67;48.07;;;6.70;99.90;;;;;;5145882;27;20820;-69
2021/11/24 02:40:39;;;;;;;326.97;54.77;;;6.70;99.90;;;;;;5145750;27;20251;-69
2021/11/24 02:43:10;;;;;;;290.23;54.40;;;6.60;99.90;;;;;;5146860;27;20333;-70
2021/11/24 02:45:39;;;;;;;222.13;50.00;;;6.60;99.90;;;;;;5116783;27;20194;-69
2021/11/24 02:48:07;;;;;;;202.13;48.03;;;6.60;99.90;;;;;;5140988;27;20216;-69
2021/11/24 02:50:36;;;;;;;259.30;50.73;;;6.60;99.90;;;;;;5134932;27;20290;-69
2021/11/24 02:53:05;;;;;;;284.10;54.20;;;6.60;99.90;;;;;;5136119;27;20186;-69
2021/11/24 02:55:36;;;;;;;193.37;47.50;;;6.60;99.90;;;;;;5148455;27;20213;-69
2021/11/24 02:58:04;;;;;;;212.93;48.37;;;6.60;99.90;;;;;;5115124;27;20185;-69
2021/11/24 03:00:33;;;;;;;258.17;51.77;;;6.60;99.90;;;;;;5135018;27;20643;-70
2021/11/24 03:03:02;;;;;;;220.77;49.87;;;6.60;99.90;;;;;;5137709;27;20189;-69
2021/11/24 03:05:33;;;;;;;253.87;52.13;;;6.60;99.90;;;;;;5142130;27;20288;-69
2021/11/24 03:08:02;;;;;;;216.73;47.73;;;6.60;99.90;;;;;;5120714;27;20274;-69
2021/11/24 03:10:30;;;;;;;197.30;47.40;;;6.60;99.90;;;;;;5138412;27;20202;-69
2021/11/24 03:13:03;;;;;;;283.13;54.23;;;6.60;99.90;;;;;;5121330;27;20892;-68
2021/11/24 03:15:33;;;;;;;262.33;54.67;;;6.60;99.90;;;;;;5133528;27;20198;-69
2021/11/24 03:18:02;;;;;;;255.53;50.93;;;6.60;99.90;;;;;;5141267;27;20182;-69
2021/11/24 03:20:31;;;;;;;233.20;50.63;;;6.60;99.90;;;;;;5141540;27;20190;-69
2021/11/24 03:23:00;;;;;;;205.90;49.93;;;6.60;99.90;;;;;;5139967;27;20189;-69
2021/11/24 03:25:29;;;;;;;231.67;49.50;;;6.60;99.90;;;;;;5122936;27;20192;-69
2021/11/24 03:27:58;;;;;;;181.83;45.93;;;6.60;99.90;;;;;;5141057;27;20209;-68
2021/11/24 03:30:30;;;;;;;192.63;46.10;;;6.60;99.90;;;;;;5141410;27;20498;-69
2021/11/24 03:33:00;;;;;;;176.53;45.87;;;6.60;99.90;;;;;;5149573;27;20291;-69
2021/11/24 03:35:31;;;;;;;205.60;49.67;;;6.60;99.90;;;;;;5144505;27;20206;-69
2021/11/24 03:38:00;;;;;;;196.60;49.23;;;6.60;99.90;;;;;;5128168;27;20841;-69
2021/11/24 03:40:31;;;;;;;163.73;44.27;;;6.60;99.90;;;;;;5121900;27;20240;-69
2021/11/24 03:43:00;;;;;;;164.10;46.00;;;6.60;99.90;;;;;;5140493;27;20236;-69
2021/11/24 03:45:33;;;;;;;158.87;46.37;;;6.60;99.90;;;;;;5141028;27;20193;-69
2021/11/24 03:48:07;;;;;;;159.50;44.27;;;6.60;99.90;;;;;;5142727;27;20300;-69
2021/11/24 03:50:36;;;;;;;127.47;40.80;;;6.60;99.90;;;;;;5140378;27;20208;-69
2021/11/24 03:53:05;;;;;;;119.83;39.47;;;6.60;99.90;;;;;;5125626;27;20189;-69
2021/11/24 03:55:33;;;;;;;174.90;45.43;;;6.60;99.90;;;;;;5138667;27;20205;-69
2021/11/24 03:58:05;;;;;;;140.57;42.73;;;6.60;99.90;;;;;;5134828;27;20186;-69
2021/11/24 04:00:36;;;;;;;145.37;44.07;;;6.60;99.90;;;;;;5138922;27;20193;-69
2021/11/24 04:03:05;;;;;;;165.77;45.33;;;6.60;99.90;;;;;;5139143;27;20201;-69
2021/11/24 04:05:37;;;;;;;149.60;47.50;;;6.60;99.90;;;;;;5121822;27;20512;-69
2021/11/24 04:08:05;;;;;;;141.73;46.00;;;6.60;99.90;;;;;;5142874;27;20316;-69
2021/11/24 04:10:35;;;;;;;143.77;45.27;;;6.60;99.90;;;;;;5148025;27;20225;-69
2021/11/24 04:13:03;;;;;;;145.10;45.63;;;6.60;99.90;;;;;;5157709;27;20194;-69
2021/11/24 04:15:31;;;;;;;135.40;44.03;;;6.60;99.90;;;;;;5145767;27;20190;-69
2021/11/24 04:18:01;;;;;;;144.73;46.60;;;6.60;99.90;;;;;;5134550;27;20186;-69
2021/11/24 04:20:30;;;;;;;141.37;45.73;;;6.60;99.90;;;;;;5159486;27;20241;-69
2021/11/24 04:22:59;;;;;;;130.10;44.40;;;6.60;99.90;;;;;;5136349;27;20202;-69
2021/11/24 04:25:28;;;;;;;117.30;40.67;;;6.60;99.90;;;;;;5144424;27;20189;-69
2021/11/24 04:27:57;;;;;;;118.60;41.67;;;6.60;99.90;;;;;;5144101;27;20208;-69
2021/11/24 04:30:26;;;;;;;111.27;41.17;;;6.60;99.90;;;;;;5126772;27;20196;-69
2021/11/24 04:32:55;;;;;;;123.07;43.10;;;6.70;99.90;;;;;;5147163;27;20197;-69
2021/11/24 04:35:24;;;;;;;133.57;43.70;;;6.70;99.90;;;;;;5150141;27;20297;-70
2021/11/24 04:37:55;;;;;;;152.37;44.43;;;6.70;99.90;;;;;;5149876;27;20190;-69
2021/11/24 04:40:24;;;;;;;145.03;45.97;;;6.70;99.90;;;;;;5127829;27;20203;-70
2021/11/24 04:42:55;;;;;;;153.67;45.67;;;6.70;99.90;;;;;;5154876;27;20195;-69
2021/11/24 04:45:24;;;;;;;145.27;44.67;;;6.70;99.90;;;;;;5128953;27;20208;-69
2021/11/24 04:47:53;;;;;;;122.23;40.27;;;6.70;99.90;;;;;;5152316;27;20220;-69
2021/11/24 04:50:21;;;;;;;146.13;43.27;;;6.70;99.90;;;;;;5121315;27;20218;-69
2021/11/24 04:52:51;;;;;;;149.27;43.80;;;6.70;99.90;;;;;;5159802;27;20208;-69
2021/11/24 04:55:20;;;;;;;144.70;44.23;;;6.70;99.90;;;;;;5139304;27;20210;-69
2021/11/24 04:57:49;;;;;;;133.53;42.03;;;6.70;99.90;;;;;;5151861;27;20249;-69
2021/11/24 05:00:21;;;;;;;127.77;43.23;;;6.70;99.90;;;;;;5131547;27;20225;-69
2021/11/24 05:02:51;;;;;;;152.87;43.97;;;6.70;99.90;;;;;;5153942;27;20660;-69
2021/11/24 05:05:22;;;;;;;161.70;43.07;;;6.70;99.90;;;;;;5159874;27;20247;-69
2021/11/24 05:07:52;;;;;;;167.50;45.03;;;6.70;99.90;;;;;;5151474;27;20305;-69
2021/11/24 05:10:20;;;;;;;195.80;47.13;;;6.70;99.90;;;;;;5152646;27;20212;-69
2021/11/24 05:12:52;;;;;;;185.20;46.60;;;6.70;99.90;;;;;;5151905;27;20212;-69
2021/11/24 05:15:23;;;;;;;179.40;46.77;;;6.70;99.90;;;;;;5140928;27;20198;-69
2021/11/24 05:17:57;;;;;;;152.43;44.03;;;6.70;99.90;;;;;;5142517;27;20699;-69
2021/11/24 05:20:28;;;;;;;168.00;43.70;;;6.70;99.90;;;;;;5137945;27;20237;-69
2021/11/24 05:23:02;;;;;;;184.37;46.40;;;6.70;99.90;;;;;;5142873;27;20243;-69
2021/11/24 05:25:34;;;;;;;184.60;47.47;;;6.70;99.90;;;;;;5142147;27;20181;-69
2021/11/24 05:28:02;;;;;;;178.13;49.13;;;6.70;99.90;;;;;;5146450;27;20849;-69
2021/11/24 05:30:31;;;;;;;190.57;48.57;;;6.70;99.90;;;;;;5139863;27;20197;-69
2021/11/24 05:33:03;;;;;;;219.93;51.60;;;6.70;99.90;;;;;;5141672;27;20197;-69
2021/11/24 05:35:31;;;;;;;213.63;50.60;;;6.70;99.90;;;;;;5146226;27;20680;-69
2021/11/24 05:38:01;;;;;;;181.60;49.63;;;6.70;99.90;;;;;;5142257;27;20198;-70
2021/11/24 05:40:29;;;;;;;220.90;49.50;;;6.70;99.90;;;;;;5141711;27;20194;-69
2021/11/24 05:42:58;;;;;;;200.87;50.73;;;6.70;99.90;;;;;;5138107;27;20290;-68
2021/11/24 05:45:37;;;;;;;201.93;49.53;;;6.70;99.90;;;;;;5151465;27;20208;-69
2021/11/24 05:48:09;;;;;;;191.70;48.23;;;6.70;99.90;;;;;;5136535;27;20281;-69
2021/11/24 05:50:44;;;;;;;241.77;50.57;;;6.80;99.90;;;;;;5143306;27;20248;-69
2021/11/24 05:53:16;;;;;;;219.43;49.47;;;6.80;99.90;;;;;;5134913;27;20208;-69
2021/11/24 05:55:45;;;;;;;194.57;47.43;;;6.70;99.90;;;;;;5114059;27;20189;-68
2021/11/24 05:58:16;;;;;;;218.63;49.07;;;6.70;99.90;;;;;;5143362;27;20740;-69
2021/11/24 06:00:44;;;;;;;192.17;46.63;;;6.70;99.90;;;;;;5144363;27;20225;-69
2021/11/24 06:03:12;;;;;;;208.17;45.00;;;6.70;99.90;;;;;;5142546;27;20198;-69
2021/11/24 06:05:45;;;;;;;209.20;49.77;;;6.70;99.90;;;;;;5137206;27;20185;-69
2021/11/24 06:08:15;;;;;;;194.40;48.70;;;6.70;99.90;;;;;;5139954;27;20228;-69
2021/11/24 06:10:44;;;;;;;184.67;46.60;;;6.70;99.90;;;;;;5135493;27;20247;-69
2021/11/24 06:13:12;;;;;;;309.27;55.47;;;6.70;99.90;;;;;;5137195;27;20273;-69
2021/11/24 06:15:41;;;;;;;195.00;47.17;;;6.70;99.90;;;;;;5137864;27;20281;-69
2021/11/24 06:18:10;;;;;;;248.63;52.30;;;6.70;99.90;;;;;;5141646;27;20193;-69
2021/11/24 06:20:39;;;;;;;252.17;51.40;;;6.70;99.90;;;;;;5136389;27;20225;-69
2021/11/24 06:23:08;;;;;;;218.10;49.03;;;6.70;99.90;;;;;;5141249;27;20258;-69
2021/11/24 06:25:38;;;;;;;211.10;48.47;;;6.70;99.90;;;;;;5142410;27;20193;-69
2021/11/24 06:28:07;;;;;;;244.33;50.97;;;6.70;99.90;;;;;;5146333;27;20296;-69
2021/11/24 06:30:38;;;;;;;327.43;53.97;;;6.70;99.90;;;;;;5128341;27;20264;-69
2021/11/24 06:33:06;;;;;;;283.30;54.83;;;6.70;99.90;;;;;;5123137;27;20274;-70
2021/11/24 06:35:35;;;;;;;208.87;48.97;;;6.70;99.90;;;;;;5145118;27;20185;-69
2021/11/24 06:38:04;;;;;;;280.23;52.83;;;6.70;99.90;;;;;;5128515;27;20327;-69
2021/11/24 06:40:33;;;;;;;238.47;51.10;;;6.70;99.90;;;;;;5135695;27;20242;-69
2021/11/24 06:43:03;;;;;;;213.80;48.03;;;6.70;99.90;;;;;;5142687;27;20256;-69
2021/11/24 06:45:31;;;;;;;221.53;51.97;;;6.70;99.90;;;;;;5135559;27;20213;-69
2021/11/24 06:48:01;;;;;;;214.63;48.67;;;6.70;99.90;;;;;;5140563;27;20232;-69
2021/11/24 06:50:30;;;;;;;219.20;50.27;;;6.70;99.90;;;;;;5144029;27;20252;-69
2021/11/24 06:52:58;;;;;;;228.43;51.87;;;6.70;99.90;;;;;;5140788;27;20186;-69
2021/11/24 06:55:27;;;;;;;207.67;49.77;;;6.70;99.90;;;;;;5138947;27;20199;-69
2021/11/24 06:57:56;;;;;;;169.60;45.17;;;6.70;99.90;;;;;;5124664;27;20548;-69
2021/11/24 07:00:26;;;;;;;158.77;44.33;;;6.70;99.90;;;;;;5128386;27;20609;-70
2021/11/24 07:02:55;;;;;;;186.10;45.87;;;6.70;99.90;;;;;;5122784;27;20233;-69
2021/11/24 07:05:24;;;;;;;162.37;43.83;;;6.70;99.90;;;;;;5145775;27;20192;-69
2021/11/24 07:07:52;;;;;;;168.37;42.80;;;6.70;99.90;;;;;;5134308;27;20185;-69
2021/11/24 07:10:22;;;;;;;185.87;46.67;;;6.70;99.90;;;;;;5135315;27;20293;-69
2021/11/24 07:12:50;;;;;;;179.43;45.57;;;6.70;99.90;;;;;;5155682;27;20201;-70
2021/11/24 07:15:19;;;;;;;174.93;44.93;;;6.70;99.90;;;;;;5137129;27;20837;-69
2021/11/24 07:17:49;;;;;;;171.83;42.17;;;6.70;99.90;;;;;;5132940;27;20668;-69
2021/11/24 07:20:18;;;;;;;154.20;40.50;;;6.70;99.90;;;;;;5149503;27;20656;-69
2021/11/24 07:22:46;;;;;;;165.87;41.83;;;6.70;99.90;;;;;;5155902;27;20283;-69
2021/11/24 07:25:15;;;;;;;139.50;39.73;;;6.70;99.90;;;;;;5144574;27;20189;-69
2021/11/24 07:27:44;;;;;;;180.17;46.47;;;6.70;99.90;;;;;;5151466;27;20729;-69
2021/11/24 07:30:19;;;;;;;164.87;44.00;;;6.70;99.90;;;;;;5141720;27;20213;-69
2021/11/24 07:32:50;;;;;;;174.77;44.40;;;6.60;99.90;;;;;;5127734;27;20217;-69
2021/11/24 07:35:18;;;;;;;156.50;39.57;;;6.70;99.90;;;;;;5138947;27;20229;-69
2021/11/24 07:37:47;;;;;;;149.00;42.00;;;6.70;99.90;;;;;;5143355;27;20189;-69
2021/11/24 07:40:16;;;;;;;162.93;40.97;;;6.70;99.90;;;;;;5145233;27;20857;-69
2021/11/24 07:42:45;;;;;;;176.90;46.97;;;6.70;99.90;;;;;;5116036;27;20277;-68
2021/11/24 07:45:13;;;;;;;164.10;43.80;;;6.70;99.90;;;;;;5133161;27;20224;-68
2021/11/24 07:47:42;;;;;;;156.83;41.90;;;6.70;99.90;;;;;;5142866;27;20618;-68
2021/11/24 07:50:12;;;;;;;182.40;49.47;;;6.70;99.90;;;;;;5150370;27;20266;-68
2021/11/24 07:52:41;;;;;;;170.60;46.37;;;6.70;99.90;;;;;;5147650;27;20793;-68
2021/11/24 07:55:10;;;;;;;156.93;44.47;;;6.70;99.90;;;;;;5146899;27;20821;-68
2021/11/24 07:57:38;;;;;;;180.27;47.37;;;6.70;99.90;;;;;;5150178;27;20288;-68
2021/11/24 08:00:11;;;;;;;168.00;46.13;;;6.70;99.90;;;;;;5139537;27;20288;-68
2021/11/24 08:02:41;;;;;;;173.07;46.70;;;6.70;99.90;;;;;;5144347;27;20199;-68
2021/11/24 08:05:10;;;;;;;193.97;49.50;;;6.70;99.90;;;;;;5142756;27;20209;-68
2021/11/24 08:07:56;;;;;;;156.47;44.50;;;6.70;99.90;;;;;;5147678;27;20275;-68
2021/11/24 08:10:25;;;;;;;184.97;48.73;;;6.70;99.90;;;;;;5150763;27;20766;-69
2021/11/24 08:12:53;;;;;;;186.20;46.63;;;6.70;99.90;;;;;;5147488;27;20664;-69
2021/11/24 08:15:22;;;;;;;172.47;47.90;;;6.70;99.90;;;;;;5149176;27;20892;-68
2021/11/24 08:17:51;;;;;;;196.07;51.83;;;6.80;99.90;;;;;;5141037;27;20242;-68
2021/11/24 08:20:19;;;;;;;184.83;51.07;;;6.80;99.90;;;;;;5141336;27;20277;-68
2021/11/24 08:22:49;;;;;;;177.77;50.47;;;6.70;99.90;;;;;;5146881;27;20596;-68
2021/11/24 08:25:22;;;;;;;196.37;50.87;;;6.80;99.90;;;;;;5130289;27;20242;-68
2021/11/24 08:27:50;;;;;;;205.43;53.17;;;6.80;99.90;;;;;;5151420;27;20222;-68
2021/11/24 08:30:20;;;;;;;192.13;48.90;;;6.80;99.90;;;;;;5127327;27;20238;-68
2021/11/24 08:32:53;;;;;;;182.13;48.80;;;6.80;99.90;;;;;;5143457;27;20194;-69
2021/11/24 08:35:23;;;;;;;218.07;52.63;;;6.80;99.90;;;;;;5142776;27;20232;-68
2021/11/24 08:37:51;;;;;;;192.50;53.00;;;6.80;99.90;;;;;;5148519;27;20203;-70
2021/11/24 08:40:24;;;;;;;186.13;49.77;;;6.80;99.90;;;;;;5141072;27;20194;-68
2021/11/24 08:42:53;;;;;;;186.13;51.80;;;6.80;99.90;;;;;;5119959;27;20221;-68
2021/11/24 08:45:23;;;;;;;181.87;49.77;;;6.80;99.90;;;;;;5139767;27;20840;-68
2021/11/24 08:47:53;;;;;;;182.37;49.00;;;6.90;99.90;;;;;;5118961;27;20755;-69
2021/11/24 08:50:22;;;;;;;166.77;47.03;;;6.90;99.90;;;;;;5144825;27;20226;-70
2021/11/24 08:52:51;;;;;;;160.37;45.10;;;7.00;99.90;;;;;;5134227;27;20197;-68
2021/11/24 08:55:22;;;;;;;161.77;48.17;;;7.00;99.90;;;;;;5139647;27;20198;-70
2021/11/24 08:57:52;;;;;;;157.33;47.60;;;7.00;99.90;;;;;;5150419;27;20197;-68
2021/11/24 09:00:22;;;;;;;151.67;47.23;;;7.00;99.90;;;;;;5128645;27;20189;-68
2021/11/24 09:03:02;;;;;;;152.77;45.63;;;7.00;99.90;;;;;;5142679;27;20201;-68
2021/11/24 09:05:30;;;;;;;149.27;45.43;;;7.10;99.90;;;;;;5110344;27;20296;-68
2021/11/24 09:07:59;;;;;;;143.73;44.20;;;7.10;99.90;;;;;;5144191;27;20228;-68
2021/11/24 09:10:29;;;;;;;167.07;48.17;;;7.20;99.90;;;;;;5142949;27;20210;-68
2021/11/24 09:13:03;;;;;;;150.00;47.70;;;7.30;99.90;;;;;;5142420;27;20277;-68
2021/11/24 09:15:31;;;;;;;164.53;49.67;;;7.30;99.90;;;;;;5144193;27;20221;-68
2021/11/24 09:18:14;;;;;;;171.30;49.93;;;7.30;99.90;;;;;;5121049;27;20190;-68
2021/11/24 09:20:43;;;;;;;162.70;44.80;;;7.30;99.90;;;;;;5142854;27;20197;-68
2021/11/24 09:23:13;;;;;;;155.67;44.50;;;7.30;99.90;;;;;;5121360;27;20194;-68
2021/11/24 09:25:50;;;;;;;167.00;44.63;;;7.30;99.90;;;;;;5131275;27;20194;-68
2021/11/24 09:28:28;;;;;;;152.20;43.10;;;7.40;99.90;;;;;;5114931;27;20196;-68
2021/11/24 09:30:56;;;;;;;161.03;44.53;;;7.40;99.90;;;;;;5136477;27;20280;-68
2021/11/24 09:33:25;;;;;;;153.80;41.83;;;7.50;99.90;;;;;;5143875;27;20197;-68
2021/11/24 09:35:54;;;;;;;165.83;43.73;;;7.50;99.90;;;;;;5145570;27;20687;-68
2021/11/24 09:38:23;;;;;;;154.73;41.93;;;7.50;99.90;;;;;;5114915;27;20247;-68
2021/11/24 09:40:52;;;;;;;155.53;44.07;;;7.60;99.90;;;;;;5139033;27;20205;-68
2021/11/24 09:43:22;;;;;;;149.10;44.23;;;7.60;99.90;;;;;;5136583;27;20304;-68
2021/11/24 09:45:51;;;;;;;159.50;43.17;;;7.70;99.90;;;;;;5143965;27;20214;-68
2021/11/24 09:48:20;;;;;;;140.00;41.57;;;7.60;99.90;;;;;;5144244;27;20255;-69
2021/11/24 09:50:51;;;;;;;133.90;40.97;;;7.70;99.90;;;;;;5139775;27;20231;-68
2021/11/24 09:53:20;;;;;;;131.73;39.57;;;7.70;99.90;;;;;;5139577;27;20289;-69
2021/11/24 09:55:49;;;;;;;128.87;40.37;;;7.70;99.90;;;;;;5145439;27;20184;-69
2021/11/24 09:58:23;;;;;;;136.47;40.83;;;7.80;99.90;;;;;;5127717;27;20228;-69
2021/11/24 10:00:52;;;;;;;126.63;41.50;;;7.70;99.90;;;;;;5135089;27;20249;-68
2021/11/24 10:03:21;;;;;;;112.27;38.97;;;7.80;99.90;;;;;;5142542;27;20201;-68
2021/11/24 10:05:49;;;;;;;116.30;38.30;;;7.80;99.90;;;;;;5139911;27;20201;-68
2021/11/24 10:08:38;;;;;;;109.93;38.17;;;7.90;99.90;;;;;;5115091;27;20198;-68
2021/11/24 10:11:07;;;;;;;114.33;38.17;;;7.90;99.90;;;;;;5134966;27;20244;-70
2021/11/24 10:13:37;;;;;;;107.30;37.53;;;7.90;99.90;;;;;;5140098;27;20265;-68
2021/11/24 10:16:19;;;;;;;101.83;37.43;;;8.00;99.90;;;;;;5123533;27;20274;-68
2021/11/24 10:19:01;;;;;;;102.77;37.73;;;8.00;99.90;;;;;;5136912;27;20209;-68
2021/11/24 10:21:30;;;;;;;107.20;36.30;;;8.00;99.90;;;;;;5133902;27;20275;-69
2021/11/24 10:24:01;;;;;;;150.03;64.90;;;8.00;99.90;;;;;;5135519;27;20212;-68
2021/11/24 10:26:32;;;;;;;129.67;49.17;;;8.00;99.90;;;;;;5139069;27;20793;-69
2021/11/24 10:29:22;;;;;;;215.07;86.47;;;8.00;99.90;;;;;;5141989;27;20197;-69
2021/11/24 10:31:53;;;;;;;108.03;40.17;;;8.10;99.90;;;;;;5135755;27;20221;-67
2021/11/24 10:34:24;;;;;;;101.43;39.07;;;8.10;99.90;;;;;;5136816;27;20247;-69
2021/11/24 10:37:04;;;;;;;96.60;34.97;;;8.10;99.90;;;;;;5142564;27;20655;-68
2021/11/24 10:39:38;;;;;;;101.93;36.07;;;8.20;99.90;;;;;;5120519;27;20196;-69
2021/11/24 10:42:11;;;;;;;94.17;35.10;;;8.20;99.90;;;;;;5141625;27;20200;-69
2021/11/24 10:44:43;;;;;;;95.50;36.90;;;8.30;99.90;;;;;;5154230;27;20225;-69
2021/11/24 10:47:13;;;;;;;589.23;281.50;;;8.30;99.90;;;;;;5147464;27;20730;-69
2021/11/24 10:49:44;;;;;;;123.07;50.93;;;8.40;99.90;;;;;;5141810;27;20198;-68
2021/11/24 10:52:25;;;;;;;94.83;37.33;;;8.40;99.90;;;;;;5136563;27;20209;-68
2021/11/24 10:55:01;;;;;;;92.13;35.00;;;8.50;99.90;;;;;;5142329;27;20209;-69
2021/11/24 10:57:30;;;;;;;90.20;34.10;;;8.50;99.90;;;;;;5152668;27;20194;-69
2021/11/24 11:00:08;;;;;;;93.43;33.77;;;8.50;99.90;;;;;;5131568;27;20193;-68
2021/11/24 11:02:40;;;;;;;93.00;33.43;;;8.50;99.90;;;;;;5098193;27;20306;-68
2021/11/24 11:05:22;;;;;;;84.70;32.27;;;8.60;99.90;;;;;;5143114;27;20253;-69
2021/11/24 11:08:03;;;;;;;92.60;33.87;;;8.60;99.90;;;;;;5137241;27;20193;-69
2021/11/24 11:10:33;;;;;;;99.47;39.40;;;8.70;99.90;;;;;;5112761;27;20189;-69
2021/11/24 11:13:04;;;;;;;89.60;35.33;;;8.70;99.90;;;;;;5145863;27;20200;-69
2021/11/24 11:15:37;;;;;;;80.53;33.17;;;8.70;99.90;;;;;;5121567;27;20288;-68
2021/11/24 11:18:13;;;;;;;82.97;33.20;;;8.80;99.90;;;;;;5141300;27;20197;-69
2021/11/24 11:20:46;;;;;;;84.07;33.00;;;8.80;99.90;;;;;;5134649;27;20250;-69
2021/11/24 11:23:21;;;;;;;80.33;32.10;;;8.80;99.90;;;;;;5159889;27;20721;-69
2021/11/24 11:25:52;;;;;;;85.70;34.10;;;8.90;99.90;;;;;;5145598;27;20205;-69
2021/11/24 11:28:23;;;;;;;75.63;32.13;;;8.90;99.90;;;;;;5137307;27;20888;-69
2021/11/24 11:30:55;;;;;;;77.57;32.30;;;8.90;99.90;;;;;;5137593;27;20205;-69
2021/11/24 11:33:31;;;;;;;75.60;30.73;;;8.90;99.90;;;;;;5121007;27;20190;-69
2021/11/24 11:36:03;;;;;;;82.93;33.27;;;9.00;99.90;;;;;;5140146;27;20197;-69
2021/11/24 11:38:32;;;;;;;75.40;32.90;;;9.00;99.90;;;;;;5146787;27;20198;-69
2021/11/24 11:41:03;;;;;;;79.83;33.33;;;9.10;99.90;;;;;;5141989;27;20189;-68
2021/11/24 11:43:52;;;;;;;79.77;33.67;;;9.10;99.90;;;;;;5142709;27;20256;-68
2021/11/24 11:46:49;;;;;;;75.80;31.93;;;8.90;99.90;;;;;;5147930;27;20193;-68
2021/11/24 11:49:20;;;;;;;80.13;32.70;;;8.80;99.90;;;;;;5136385;27;20198;-69
2021/11/24 11:51:50;;;;;;;84.60;33.00;;;8.70;99.90;;;;;;5131364;27;20262;-69
2021/11/24 11:54:29;;;;;;;80.37;32.83;;;8.80;99.90;;;;;;5137041;27;20828;-71
2021/11/24 11:57:00;;;;;;;74.53;32.13;;;8.90;99.90;;;;;;5148936;27;20279;-70
2021/11/24 11:59:31;;;;;;;80.40;32.03;;;8.90;99.90;;;;;;5149500;27;20193;-70
2021/11/24 12:02:04;;;;;;;75.27;33.60;;;9.00;99.90;;;;;;5145878;27;20197;-70
2021/11/24 12:05:12;;;;;;;78.33;32.70;;;9.00;99.90;;;;;;5152279;27;20299;-70
2021/11/24 12:08:09;;;;;;;76.73;33.07;;;9.10;99.90;;;;;;5117542;27;20181;-70
2021/11/24 12:10:59;;;;;;;77.60;32.60;;;9.10;99.90;;;;;;5146216;27;20292;-70
2021/11/24 12:13:33;;;;;;;68.37;31.50;;;9.10;99.90;;;;;;5141219;27;20288;-70
2021/11/24 12:16:40;;;;;;;72.53;32.17;;;9.10;99.90;;;;;;5147991;27;20190;-70
2021/11/24 12:19:18;;;;;;;72.93;32.03;;;9.20;99.90;;;;;;5127591;27;20216;-71
2021/11/24 12:21:52;;;;;;;73.67;33.30;;;9.20;99.90;;;;;;5130956;27;20251;-70
2021/11/24 12:24:38;;;;;;;69.40;32.97;;;9.30;99.90;;;;;;5143790;27;20246;-70
2021/11/24 12:27:07;;;;;;;79.57;33.67;;;9.20;99.90;;;;;;5143748;27;20714;-69
2021/11/24 12:29:46;;;;;;;78.20;34.70;;;9.20;99.90;;;;;;5140703;27;20644;-68
2021/11/24 12:32:16;;;;;;;78.37;33.70;;;9.20;99.90;;;;;;5137202;27;20197;-69
2021/11/24 12:34:52;;;;;;;75.37;33.53;;;9.10;99.90;;;;;;5141665;27;20230;-69
2021/11/24 12:37:21;;;;;;;75.60;32.70;;;9.10;99.90;;;;;;5144285;27;20188;-69
2021/11/24 12:39:50;;;;;;;81.77;34.30;;;9.10;99.90;;;;;;5140885;27;20258;-69
2021/11/24 12:42:26;;;;;;;80.77;33.67;;;9.10;99.90;;;;;;5148278;27;20193;-69
2021/11/24 12:44:55;;;;;;;81.40;34.27;;;9.10;99.90;;;;;;5140782;27;20259;-69
2021/11/24 12:47:24;;;;;;;77.67;33.40;;;9.10;99.90;;;;;;5139906;27;20201;-71